Time;durP1;ratioP1;P1;durP2;ratioP2;P2;SDS_P1;SDS_P2;PMS_P1;PMS_P2;Temp;Humidity;BMP_temperature;BMP_pressure;BME280_temperature;BME280_humidity;BME280_pressure;Samples;Min_cycle;Max_cycle;Signal;HPM_P1;HPM_P2
2021/04/23 00:00:36;;;;;;;19.40;7.13;;;;;;;4.53;78.98;102914.63;5061893;28;20037;-75
2021/04/23 00:03:11;;;;;;;19.27;7.38;;;;;;;4.57;79.08;102918.84;5059985;28;20051;-75
2021/04/23 00:05:37;;;;;;;23.15;7.90;;;;;;;4.58;79.40;102911.78;5057336;28;20071;-75
2021/04/23 00:08:03;;;;;;;23.08;8.43;;;;;;;4.53;79.44;102904.03;5054976;28;20059;-75
2021/04/23 00:10:29;;;;;;;25.40;7.07;;;;;;;4.59;79.76;102918.78;5051097;28;20021;-75
2021/04/23 00:12:54;;;;;;;22.52;7.15;;;;;;;4.64;78.66;102918.59;5052084;28;20342;-75
2021/04/23 00:15:21;;;;;;;20.95;7.90;;;;;;;4.64;78.98;102915.94;5056790;28;20044;-75
2021/04/23 00:17:47;;;;;;;18.92;7.78;;;;;;;4.65;78.72;102917.66;5056788;28;20033;-75
2021/04/23 00:20:21;;;;;;;18.95;7.72;;;;;;;4.64;79.12;102918.59;5055733;28;20036;-74
2021/04/23 00:22:47;;;;;;;23.27;8.70;;;;;;;4.41;79.33;102880.75;5052307;28;20252;-75
2021/04/23 00:25:13;;;;;;;19.08;8.57;;;;;;;4.60;79.52;102915.22;5052197;28;20297;-75
2021/04/23 00:27:41;;;;;;;21.88;8.82;;;;;;;4.59;79.80;102919.63;5055192;28;20048;-75
2021/04/23 00:30:09;;;;;;;20.08;7.93;;;;;;;4.41;80.43;102892.16;5055119;28;21223;-75
2021/04/23 00:32:53;;;;;;;20.13;8.43;;;;;;;4.57;80.68;102918.84;5057686;28;20029;-75
2021/04/23 00:35:31;;;;;;;25.23;9.55;;;;;;;4.59;80.29;102916.16;5052626;28;20129;-75
2021/04/23 00:37:59;;;;;;;20.95;8.55;;;;;;;4.58;80.63;102917.06;5058260;28;20039;-75
2021/04/23 00:40:29;;;;;;;18.50;8.88;;;;;;;4.18;80.35;102853.44;5064682;28;20032;-74
2021/04/23 00:42:55;;;;;;;15.82;8.68;;;;;;;4.58;80.78;102919.72;5038338;28;20209;-75
2021/04/23 00:45:27;;;;;;;23.20;8.93;;;;;;;4.32;81.31;102875.81;5060999;28;20037;-75
2021/04/23 00:47:53;;;;;;;21.95;8.63;;;;;;;4.53;80.79;102913.72;5055742;28;20066;-75
2021/04/23 00:50:45;;;;;;;21.02;9.00;;;;;;;4.52;80.97;102920.81;5056825;28;20028;-75
2021/04/23 00:53:22;;;;;;;24.95;8.10;;;;;;;4.25;80.97;102876.06;5067954;28;20094;-74
2021/04/23 00:55:48;;;;;;;25.05;8.73;;;;;;;4.46;81.72;102917.56;5052685;28;20041;-75
2021/04/23 00:58:18;;;;;;;24.15;8.80;;;;;;;4.48;81.06;102927.16;5053104;28;20029;-75
2021/04/23 01:00:47;;;;;;;20.73;8.75;;;;;;;4.45;81.39;102914.03;5057325;28;20025;-75
2021/04/23 01:03:14;;;;;;;18.25;7.78;;;;;;;4.47;81.20;102914.84;5039441;28;20044;-75
2021/04/23 01:05:40;;;;;;;26.90;8.68;;;;;;;4.48;81.37;102923.66;5055099;28;20496;-75
2021/04/23 01:08:07;;;;;;;29.35;9.00;;;;;;;4.47;81.32;102921.94;5054991;28;20033;-75
2021/04/23 01:10:33;;;;;;;23.45;8.73;;;;;;;4.47;81.48;102920.13;5055761;28;20033;-75
2021/04/23 01:12:59;;;;;;;19.92;8.15;;;;;;;4.10;82.07;102872.25;5052923;28;20128;-75
2021/04/23 01:15:25;;;;;;;17.73;8.18;;;;;;;4.39;82.46;102920.44;5055138;28;20036;-75
2021/04/23 01:17:51;;;;;;;26.48;8.15;;;;;;;4.37;82.41;102919.63;5059358;28;20028;-74
2021/04/23 01:20:17;;;;;;;24.48;9.13;;;;;;;4.37;82.43;102921.44;5057662;28;20275;-74
2021/04/23 01:22:42;;;;;;;20.02;8.52;;;;;;;4.34;82.84;102921.56;5056493;28;20419;-74
2021/04/23 01:25:09;;;;;;;20.50;8.50;;;;;;;4.32;82.67;102915.47;5057406;28;20035;-74
2021/04/23 01:27:35;;;;;;;21.27;9.02;;;;;;;4.31;82.61;102916.38;5054884;28;20039;-74
2021/04/23 01:30:03;;;;;;;19.60;8.45;;;;;;;4.31;83.23;102911.09;5055334;28;20135;-74
2021/04/23 01:32:29;;;;;;;19.60;8.50;;;;;;;4.27;83.40;102902.44;5055638;28;20044;-74
2021/04/23 01:34:54;;;;;;;18.02;8.40;;;;;;;3.95;82.58;102862.28;5056061;28;20029;-75
2021/04/23 01:37:20;;;;;;;26.50;9.60;;;;;;;4.16;83.25;102912.56;5038842;28;20087;-75
2021/04/23 01:39:46;;;;;;;19.95;9.23;;;;;;;4.14;83.46;102907.31;5040924;28;20338;-74
2021/04/23 01:42:13;;;;;;;26.55;8.80;;;;;;;4.08;82.80;102915.50;5053536;28;20462;-74
2021/04/23 01:44:39;;;;;;;18.17;7.97;;;;;;;4.03;83.18;102918.34;5051556;28;20044;-74
2021/04/23 01:47:06;;;;;;;24.35;9.95;;;;;;;4.05;84.29;102919.16;5056736;28;20032;-74
2021/04/23 01:49:33;;;;;;;22.98;8.70;;;;;;;4.07;83.58;102914.63;5059555;28;20090;-74
2021/04/23 01:52:09;;;;;;;18.70;8.73;;;;;;;4.07;83.75;102919.91;5059755;28;20441;-75
2021/04/23 01:54:35;;;;;;;18.48;8.50;;;;;;;4.00;84.36;102902.59;5036560;28;20060;-75
2021/04/23 01:57:02;;;;;;;21.17;8.88;;;;;;;4.07;83.39;102914.63;5058101;28;20029;-75
2021/04/23 01:59:29;;;;;;;20.38;8.93;;;;;;;4.03;83.74;102926.25;5055313;28;20619;-75
2021/04/23 02:01:54;;;;;;;20.27;8.82;;;;;;;3.94;83.96;102924.84;5056884;28;20032;-75
2021/04/23 02:04:20;;;;;;;20.48;8.63;;;;;;;3.88;84.22;102929.50;5050955;28;20470;-74
2021/04/23 02:06:47;;;;;;;28.55;9.05;;;;;;;3.79;83.71;102925.41;5055573;28;20040;-74
2021/04/23 02:09:14;;;;;;;20.88;8.40;;;;;;;3.74;84.75;102933.50;5054379;28;20025;-75
2021/04/23 02:11:42;;;;;;;18.90;8.30;;;;;;;3.70;84.61;102931.03;5058152;28;20032;-75
2021/04/23 02:14:08;;;;;;;23.27;8.45;;;;;;;3.65;84.95;102924.16;5053172;28;20021;-75
2021/04/23 02:16:34;;;;;;;24.83;8.32;;;;;;;3.48;85.83;102908.94;5057128;28;20359;-75
2021/04/23 02:19:00;;;;;;;24.77;8.65;;;;;;;3.60;85.31;102934.00;5048518;28;20029;-75
2021/04/23 02:21:26;;;;;;;24.23;8.90;;;;;;;3.26;85.15;102882.44;5057526;28;20513;-75
2021/04/23 02:23:52;;;;;;;19.55;8.52;;;;;;;3.54;85.71;102931.59;5047716;28;20159;-75
2021/04/23 02:26:19;;;;;;;21.85;9.30;;;;;;;3.51;85.39;102931.72;5058698;28;20036;-75
2021/04/23 02:28:49;;;;;;;27.83;10.20;;;;;;;3.50;85.72;102932.63;5045728;28;20029;-74
2021/04/23 02:31:17;;;;;;;22.92;9.80;;;;;;;3.46;85.96;102926.59;5058194;28;20354;-76
2021/04/23 02:33:45;;;;;;;21.75;8.70;;;;;;;3.44;86.07;102933.72;5056271;28;20017;-74
2021/04/23 02:36:10;;;;;;;22.13;9.30;;;;;;;3.42;86.34;102927.63;5059895;28;20036;-75
2021/04/23 02:38:37;;;;;;;24.90;9.10;;;;;;;3.41;86.41;102935.59;5055288;28;20048;-75
2021/04/23 02:41:04;;;;;;;28.27;11.18;;;;;;;3.42;86.98;102926.78;5056249;28;20043;-75
2021/04/23 02:43:34;;;;;;;25.75;10.25;;;;;;;3.17;86.45;102890.69;5054719;28;20330;-75
2021/04/23 02:46:01;;;;;;;16.33;9.20;;;;;;;3.42;86.21;102939.97;5059031;28;20033;-75
2021/04/23 02:48:30;;;;;;;18.65;8.95;;;;;;;3.37;87.35;102938.34;5059204;28;20451;-75
2021/04/23 02:51:06;;;;;;;25.23;9.57;;;;;;;3.36;86.76;102943.69;5062036;28;20121;-74
2021/04/23 02:53:32;;;;;;;27.88;10.07;;;;;;;3.33;87.66;102949.91;5055574;28;20045;-74
2021/04/23 02:55:59;;;;;;;20.23;9.65;;;;;;;3.33;87.57;102949.06;5058799;28;20066;-74
2021/04/23 02:58:27;;;;;;;24.15;10.02;;;;;;;3.29;87.45;102947.44;5057191;28;20032;-74
2021/04/23 03:00:56;;;;;;;31.95;10.43;;;;;;;3.26;88.06;102952.84;5055241;28;20151;-74
2021/04/23 03:03:23;;;;;;;23.88;10.60;;;;;;;3.25;88.37;102951.97;5057062;28;20029;-75
2021/04/23 03:05:50;;;;;;;23.52;10.52;;;;;;;3.22;88.10;102946.78;5061047;28;20024;-74
2021/04/23 03:08:16;;;;;;;25.33;10.27;;;;;;;2.60;88.37;102846.91;5045894;28;20119;-75
2021/04/23 03:10:49;;;;;;;29.75;11.60;;;;;;;3.18;88.77;102950.47;5064009;28;20033;-75
2021/04/23 03:13:20;;;;;;;27.52;12.15;;;;;;;2.88;89.34;102911.88;5055282;28;20032;-75
2021/04/23 03:15:46;;;;;;;23.02;10.40;;;;;;;2.82;89.47;102901.56;5057737;28;20516;-75
2021/04/23 03:18:14;;;;;;;22.92;10.45;;;;;;;3.13;89.52;102953.25;5059758;28;20020;-74
2021/04/23 03:20:40;;;;;;;20.85;10.45;;;;;;;3.09;89.01;102959.56;5085191;28;20112;-75
2021/04/23 03:23:05;;;;;;;26.73;10.65;;;;;;;3.04;89.29;102956.22;5057137;28;20035;-75
2021/04/23 03:25:31;;;;;;;22.40;10.07;;;;;;;2.59;89.43;102894.41;5060026;28;20499;-75
2021/04/23 03:27:57;;;;;;;16.85;9.43;;;;;;;2.99;89.54;102955.50;5061985;28;20628;-75
2021/04/23 03:30:27;;;;;;;20.02;10.05;;;;;;;2.99;89.54;102966.03;5057061;28;20028;-74
2021/04/23 03:32:53;;;;;;;22.65;10.32;;;;;;;2.96;88.75;102960.88;5061855;28;20029;-74
2021/04/23 03:35:19;;;;;;;25.08;10.30;;;;;;;2.98;89.73;102969.63;5058392;28;20391;-74
2021/04/23 03:37:46;;;;;;;17.90;9.77;;;;;;;2.98;88.93;102969.63;5062611;28;20028;-74
2021/04/23 03:40:15;;;;;;;20.75;9.95;;;;;;;2.95;89.13;102970.56;5036764;28;20037;-74
2021/04/23 03:42:40;;;;;;;21.38;10.32;;;;;;;2.96;89.72;102972.28;5054941;28;20737;-74
2021/04/23 03:45:08;;;;;;;20.63;9.88;;;;;;;2.84;88.76;102952.47;5054777;28;20037;-75
2021/04/23 03:47:34;;;;;;;20.95;10.70;;;;;;;2.93;87.83;102974.19;5052726;28;20033;-75
2021/04/23 03:50:00;;;;;;;20.10;9.13;;;;;;;2.85;87.63;102972.63;5063219;28;20044;-74
2021/04/23 03:52:26;;;;;;;26.13;10.35;;;;;;;2.22;87.93;102874.53;5057677;28;20547;-75
2021/04/23 03:54:51;;;;;;;26.00;10.25;;;;;;;2.76;89.01;102978.22;5054415;28;20112;-76
2021/04/23 03:57:16;;;;;;;21.67;9.75;;;;;;;2.77;88.38;102976.47;5054546;28;20033;-74
2021/04/23 03:59:42;;;;;;;25.42;10.57;;;;;;;2.76;88.92;102975.59;5056191;28;20061;-75
2021/04/23 04:02:08;;;;;;;28.10;11.23;;;;;;;2.76;88.50;102978.22;5059781;28;20024;-75
2021/04/23 04:04:33;;;;;;;21.98;10.50;;;;;;;2.74;88.30;102978.28;5055704;28;20031;-75
2021/04/23 04:06:59;;;;;;;21.98;11.48;;;;;;;2.59;88.87;102947.13;5061624;28;20063;-75
2021/04/23 04:09:24;;;;;;;29.10;11.82;;;;;;;2.72;88.60;102972.19;5056413;28;20032;-75
2021/04/23 04:11:50;;;;;;;33.67;12.07;;;;;;;2.73;88.75;102973.03;5058630;28;20379;-76
2021/04/23 04:14:15;;;;;;;33.38;12.27;;;;;;;2.72;88.67;102976.59;5056126;28;20457;-73
2021/04/23 04:16:41;;;;;;;25.25;10.88;;;;;;;2.70;88.22;102976.66;5055798;28;20356;-75
2021/04/23 04:19:06;;;;;;;23.20;11.10;;;;;;;2.69;88.02;102980.19;5050323;28;20391;-74
2021/04/23 04:21:32;;;;;;;32.47;11.57;;;;;;;2.73;88.16;102980.94;5061173;28;20032;-74
2021/04/23 04:23:58;;;;;;;25.02;11.52;;;;;;;2.73;88.03;102987.09;5053452;28;20167;-75
2021/04/23 04:26:23;;;;;;;28.58;11.68;;;;;;;2.72;87.97;102993.28;5045700;28;20036;-74
2021/04/23 04:28:49;;;;;;;25.08;11.77;;;;;;;2.71;88.09;102990.72;5048857;28;20039;-74
2021/04/23 04:31:14;;;;;;;31.52;12.00;;;;;;;2.69;87.99;102997.78;5044269;28;20059;-74
2021/04/23 04:33:40;;;;;;;30.27;12.80;;;;;;;2.68;87.61;102996.06;5053767;28;20035;-75
2021/04/23 04:36:06;;;;;;;23.67;11.77;;;;;;;2.70;87.96;102996.88;5054436;28;20044;-75
2021/04/23 04:38:32;;;;;;;21.20;11.13;;;;;;;2.71;88.42;103003.88;5056596;28;20032;-75
2021/04/23 04:40:58;;;;;;;29.27;12.15;;;;;;;2.72;88.25;103010.84;5060366;28;20048;-76
2021/04/23 04:43:23;;;;;;;26.25;11.13;;;;;;;2.53;88.47;102978.94;5051706;28;20048;-75
2021/04/23 04:45:49;;;;;;;26.10;11.75;;;;;;;2.54;87.25;102978.03;5060289;28;20028;-75
2021/04/23 04:48:15;;;;;;;28.60;10.88;;;;;;;2.71;86.96;103012.66;5055021;28;20055;-75
2021/04/23 04:50:48;;;;;;;27.30;11.55;;;;;;;2.68;87.88;103010.09;5054783;28;20029;-75
2021/04/23 04:53:15;;;;;;;26.48;12.05;;;;;;;2.79;88.40;103016.81;5055687;28;20418;-74
2021/04/23 04:55:43;;;;;;;22.48;11.52;;;;;;;2.78;88.22;103017.75;5062840;28;20028;-74
2021/04/23 04:58:10;;;;;;;26.08;11.68;;;;;;;2.85;88.59;103030.66;5058428;28;20109;-74
2021/04/23 05:00:37;;;;;;;26.08;11.70;;;;;;;2.70;88.82;102997.75;5054106;28;20090;-73
2021/04/23 05:03:03;;;;;;;25.10;11.63;;;;;;;2.90;88.79;103022.63;5054956;28;20410;-73
2021/04/23 05:05:31;;;;;;;27.60;11.93;;;;;;;2.99;89.37;103027.59;5055205;28;20036;-74
2021/04/23 05:07:57;;;;;;;29.77;12.10;;;;;;;2.88;89.42;103005.97;5056912;28;20039;-74
2021/04/23 05:10:22;;;;;;;28.75;12.52;;;;;;;3.10;89.62;103029.88;5058165;28;20043;-74
2021/04/23 05:12:48;;;;;;;26.90;12.35;;;;;;;3.18;90.40;103033.13;5055677;28;20196;-76
2021/04/23 05:15:16;;;;;;;25.67;12.23;;;;;;;3.26;89.71;103038.16;5057258;28;20051;-74
2021/04/23 05:17:42;;;;;;;31.75;12.13;;;;;;;3.32;89.86;103045.88;5053300;28;20029;-74
2021/04/23 05:20:08;;;;;;;28.58;11.80;;;;;;;3.43;89.78;103047.28;5085119;28;20071;-74
2021/04/23 05:22:37;;;;;;;31.25;11.98;;;;;;;3.51;89.29;103054.03;5042378;28;20501;-75
2021/04/23 05:25:04;;;;;;;25.98;12.30;;;;;;;3.62;89.23;103055.44;5052186;28;20210;-73
2021/04/23 05:27:30;;;;;;;26.20;12.20;;;;;;;3.63;88.99;103036.88;5053090;28;20037;-73
2021/04/23 05:29:56;;;;;;;29.08;11.63;;;;;;;3.80;88.20;103046.00;5055591;28;20560;-73
2021/04/23 05:32:21;;;;;;;21.65;11.23;;;;;;;3.94;88.21;103046.34;5057882;28;20589;-74
2021/04/23 05:34:48;;;;;;;23.02;11.90;;;;;;;4.08;87.91;103056.41;5055225;28;20418;-75
2021/04/23 05:37:14;;;;;;;27.65;11.30;;;;;;;4.33;88.42;103052.00;5054983;28;20033;-75
2021/04/23 05:39:43;;;;;;;21.30;10.45;;;;;;;4.52;87.36;103050.41;5056028;28;20150;-75
2021/04/23 05:42:12;;;;;;;27.58;11.23;;;;;;;4.66;86.75;103052.47;5054525;28;20372;-75
2021/04/23 05:44:38;;;;;;;22.38;10.25;;;;;;;4.79;86.48;103047.59;5057636;28;20312;-75
2021/04/23 05:47:04;;;;;;;24.48;11.43;;;;;;;4.87;86.67;103052.56;5054634;28;20036;-75
2021/04/23 05:49:31;;;;;;;33.03;11.75;;;;;;;5.13;85.83;103059.44;5053958;28;20044;-75
2021/04/23 05:51:57;;;;;;;24.55;11.57;;;;;;;5.57;83.61;103058.50;5058816;28;20036;-75
2021/04/23 05:54:22;;;;;;;26.77;10.57;;;;;;;6.03;81.89;103042.41;5048556;28;20037;-74
2021/04/23 05:56:48;;;;;;;27.35;10.30;;;;;;;6.56;79.98;103056.75;5058892;28;20040;-74
2021/04/23 05:59:13;;;;;;;20.58;9.98;;;;;;;6.93;78.16;103069.19;5060179;28;20056;-74
2021/04/23 06:01:39;;;;;;;24.92;9.60;;;;;;;7.91;74.71;103057.19;5058903;28;20047;-74
2021/04/23 06:04:05;;;;;;;23.27;8.75;;;;;;;9.28;69.14;103072.69;5050994;28;20048;-74
2021/04/23 06:06:30;;;;;;;23.05;9.68;;;;;;;9.90;64.52;102985.50;5087538;28;20036;-74
2021/04/23 06:08:57;;;;;;;16.08;8.65;;;;;;;11.06;61.83;103070.69;5042391;28;20044;-74
2021/04/23 06:11:23;;;;;;;15.20;7.85;;;;;;;11.72;60.64;103068.88;5056857;28;20043;-75
2021/04/23 06:13:49;;;;;;;17.58;8.00;;;;;;;12.51;56.41;103041.09;5062583;28;20035;-78
2021/04/23 06:16:14;;;;;;;22.52;7.85;;;;;;;13.26;54.51;103063.25;5057478;28;20498;-75
2021/04/23 06:18:41;;;;;;;18.45;8.00;;;;;;;13.43;53.15;103068.22;5058376;28;20098;-79
2021/04/23 06:21:07;;;;;;;18.98;7.72;;;;;;;13.01;53.75;103024.91;5057823;28;20025;-79
2021/04/23 06:23:34;;;;;;;24.73;7.55;;;;;;;13.91;51.41;103069.88;5054348;28;20036;-79
2021/04/23 06:25:59;;;;;;;20.42;7.13;;;;;;;14.26;49.88;103078.81;5057227;28;20423;-78
2021/04/23 06:28:25;;;;;;;20.13;7.20;;;;;;;14.35;49.60;103075.38;5056428;28;20033;-80
2021/04/23 06:30:50;;;;;;;15.48;6.47;;;;;;;14.69;49.12;103077.19;5072753;28;20029;-78
2021/04/23 06:33:19;;;;;;;18.45;6.38;;;;;;;14.84;49.25;103077.78;5053662;28;20349;-79
2021/04/23 06:35:46;;;;;;;17.73;5.97;;;;;;;14.94;48.27;103083.22;5058819;28;20050;-80
2021/04/23 06:38:12;;;;;;;19.10;5.38;;;;;;;14.88;47.72;103081.03;5054063;28;20432;-74
2021/04/23 06:40:38;;;;;;;15.02;5.22;;;;;;;15.25;46.61;103061.81;5057286;28;20076;-74
2021/04/23 06:43:04;;;;;;;15.82;4.90;;;;;;;15.93;44.58;103088.34;5052232;28;20036;-74
2021/04/23 06:45:30;;;;;;;13.07;5.57;;;;;;;15.18;45.75;103041.81;5055903;28;20048;-74
2021/04/23 06:47:56;;;;;;;13.98;5.20;;;;;;;15.73;45.96;103079.28;5054932;28;20082;-74
2021/04/23 06:50:23;;;;;;;15.98;6.28;;;;;;;16.20;43.87;103087.78;5053259;28;20040;-74
2021/04/23 06:52:49;;;;;;;18.42;6.00;;;;;;;16.37;43.74;103096.19;5053434;28;20251;-75
2021/04/23 06:55:17;;;;;;;17.15;5.80;;;;;;;16.36;43.20;103092.66;5060281;28;20043;-74
2021/04/23 06:57:44;;;;;;;15.95;5.65;;;;;;;16.91;41.68;103095.88;5057887;28;20047;-74
2021/04/23 07:00:17;;;;;;;15.63;5.40;;;;;;;16.75;41.42;103091.91;5057598;28;20056;-74
2021/04/23 07:02:42;;;;;;;15.45;4.82;;;;;;;16.83;41.16;103083.94;5054047;28;20028;-73
2021/04/23 07:05:09;;;;;;;15.23;5.53;;;;;;;16.90;40.79;103075.28;5047953;28;20699;-74
2021/04/23 07:07:35;;;;;;;16.10;5.28;;;;;;;16.81;40.97;103090.50;5045795;28;20036;-74
2021/04/23 07:10:00;;;;;;;13.27;4.80;;;;;;;17.24;39.35;103093.78;5058670;28;20116;-73
2021/04/23 07:12:26;;;;;;;11.43;3.97;;;;;;;17.38;38.83;103093.38;5055037;28;20051;-73
2021/04/23 07:14:52;;;;;;;12.60;4.55;;;;;;;16.89;39.50;103079.00;5039849;28;20458;-73
2021/04/23 07:17:17;;;;;;;10.90;3.45;;;;;;;16.48;39.46;103085.31;5058375;28;20098;-73
2021/04/23 07:19:46;;;;;;;17.60;3.92;;;;;;;15.42;42.06;103079.22;5021670;28;20037;-73
2021/04/23 07:22:12;;;;;;;10.85;3.58;;;;;;;14.82;43.66;103067.13;5061210;28;20375;-73
2021/04/23 07:24:38;;;;;;;14.82;3.53;;;;;;;15.31;42.15;103081.00;5050168;28;20048;-73
2021/04/23 07:27:03;;;;;;;11.50;3.35;;;;;;;16.18;39.44;103053.88;5050280;28;20032;-80
2021/04/23 07:29:29;;;;;;;12.13;3.90;;;;;;;17.05;38.03;103082.00;5038806;28;20501;-73
2021/04/23 07:31:54;;;;;;;11.77;3.55;;;;;;;17.53;37.52;103082.13;5057010;28;20490;-73
2021/04/23 07:34:20;;;;;;;14.90;4.20;;;;;;;17.72;36.54;103090.16;5077775;28;20470;-74
2021/04/23 07:36:45;;;;;;;11.05;3.50;;;;;;;17.56;37.00;103090.78;5059016;28;20043;-73
2021/04/23 07:39:12;;;;;;;8.20;3.08;;;;;;;17.43;37.50;103088.41;5040471;28;20162;-73
2021/04/23 07:41:41;;;;;;;12.98;4.18;;;;;;;17.13;37.73;103074.06;5053754;28;20131;-74
2021/04/23 07:44:07;;;;;;;11.27;3.50;;;;;;;17.87;36.55;103101.38;5052920;28;20024;-73
2021/04/23 07:46:33;;;;;;;13.40;3.72;;;;;;;17.81;36.46;103096.53;5058919;28;20067;-74
2021/04/23 07:49:00;;;;;;;10.55;3.85;;;;;;;18.19;35.39;103105.53;5052451;28;20527;-75
2021/04/23 07:51:26;;;;;;;12.27;3.88;;;;;;;18.24;35.27;103097.00;5057231;28;20040;-75
2021/04/23 07:53:51;;;;;;;11.93;4.10;;;;;;;18.33;35.61;103101.50;5058431;28;20050;-75
2021/04/23 07:56:17;;;;;;;10.60;3.95;;;;;;;18.62;35.03;103100.50;5057286;28;20123;-74
2021/04/23 07:58:43;;;;;;;13.73;4.47;;;;;;;18.61;34.85;103109.59;5056526;28;20044;-74
2021/04/23 08:01:08;;;;;;;11.95;4.22;;;;;;;18.03;35.57;103048.59;5061646;28;20139;-74
2021/04/23 08:03:34;;;;;;;12.25;4.15;;;;;;;19.09;33.78;103075.13;5052824;28;20675;-74
2021/04/23 08:05:59;;;;;;;11.02;4.28;;;;;;;19.04;35.30;103099.06;5062905;28;20483;-74
2021/04/23 08:08:25;;;;;;;13.52;4.43;;;;;;;19.40;33.56;103087.38;5056771;28;20138;-74
2021/04/23 08:10:51;;;;;;;11.82;3.80;;;;;;;19.24;33.74;103096.22;5059548;28;20033;-74
2021/04/23 08:13:16;;;;;;;13.43;4.65;;;;;;;18.33;35.87;103088.00;5053511;28;20533;-76
2021/04/23 08:15:42;;;;;;;13.90;4.22;;;;;;;18.76;35.01;103096.41;5040431;28;20052;-74
2021/04/23 08:18:07;;;;;;;13.63;4.28;;;;;;;18.84;34.48;103086.69;5060926;28;20040;-74
2021/04/23 08:20:34;;;;;;;12.00;4.10;;;;;;;18.69;35.84;103100.72;5040019;28;20397;-75
2021/04/23 08:23:00;;;;;;;14.48;4.32;;;;;;;19.27;34.43;103087.78;5059456;28;20024;-75
2021/04/23 08:25:26;;;;;;;9.65;3.42;;;;;;;19.62;33.19;103093.28;5057796;28;20055;-75
2021/04/23 08:27:52;;;;;;;14.13;4.20;;;;;;;19.13;33.97;103105.41;5026115;28;20509;-75
2021/04/23 08:30:24;;;;;;;9.60;3.58;;;;;;;19.77;32.50;103080.00;5056824;28;20033;-75
2021/04/23 08:32:51;;;;;;;11.23;3.90;;;;;;;19.82;33.48;103102.03;5047703;28;20303;-75
2021/04/23 08:35:18;;;;;;;12.80;3.60;;;;;;;19.67;32.66;103104.50;5052186;28;20048;-75
2021/04/23 08:37:43;;;;;;;12.15;3.95;;;;;;;19.20;33.44;103103.81;5057189;28;20060;-76
2021/04/23 08:40:12;;;;;;;16.20;3.90;;;;;;;19.55;33.55;103096.63;5058766;28;20112;-74
2021/04/23 08:42:37;;;;;;;13.15;3.90;;;;;;;20.53;31.90;103107.31;5052598;28;20593;-75
2021/04/23 08:45:10;;;;;;;11.10;3.75;;;;;;;20.46;31.95;103101.72;5059110;28;20082;-75
2021/04/23 08:47:41;;;;;;;8.10;3.65;;;;;;;19.77;33.37;103098.97;5056787;28;20239;-75
2021/04/23 08:50:09;;;;;;;11.68;3.60;;;;;;;19.70;33.99;103052.72;5051354;28;20121;-75
2021/04/23 08:52:35;;;;;;;10.45;3.58;;;;;;;21.25;30.58;103091.34;5055128;28;20155;-81
2021/04/23 08:55:03;;;;;;;8.77;3.35;;;;;;;20.82;31.07;103103.38;5055646;28;20036;-81
2021/04/23 08:57:29;;;;;;;10.70;3.70;;;;;;;19.78;32.60;103077.13;5042688;28;20032;-81
2021/04/23 08:59:54;;;;;;;13.52;3.90;;;;;;;20.22;32.25;103095.19;5057958;28;20036;-75
2021/04/23 09:02:19;;;;;;;9.50;3.67;;;;;;;20.73;31.50;103097.88;5065314;28;20086;-81
2021/04/23 09:04:45;;;;;;;10.82;4.10;;;;;;;20.50;31.88;103089.50;5051993;28;20025;-81
2021/04/23 09:07:10;;;;;;;12.15;3.60;;;;;;;20.26;32.04;103080.28;5049505;28;20502;-76
2021/04/23 09:09:44;;;;;;;14.60;4.20;;;;;;;20.32;33.08;103087.78;5058733;28;20135;-75
2021/04/23 09:12:16;;;;;;;8.73;3.70;;;;;;;20.96;30.66;103089.13;5059085;28;20086;-75
2021/04/23 09:14:41;;;;;;;10.10;3.80;;;;;;;20.73;30.46;103070.75;5070107;28;20540;-75
2021/04/23 09:17:07;;;;;;;13.93;3.78;;;;;;;20.71;30.85;103093.63;5043918;28;20040;-76
2021/04/23 09:19:34;;;;;;;12.88;3.63;;;;;;;20.24;31.68;103087.72;5063262;28;20036;-75
2021/04/23 09:22:19;;;;;;;11.00;4.17;;;;;;;19.51;32.80;103083.56;5064015;28;20070;-75
2021/04/23 09:24:55;;;;;;;9.70;3.42;;;;;;;18.93;33.84;103086.59;5066302;28;20789;-75
2021/04/23 09:27:23;;;;;;;10.63;4.03;;;;;;;18.44;35.85;103096.88;5058868;28;20032;-76
2021/04/23 09:29:52;;;;;;;9.20;4.07;;;;;;;18.99;34.37;103095.13;5060836;28;20540;-75
2021/04/23 09:32:20;;;;;;;14.00;4.53;;;;;;;18.36;35.58;103067.91;5060622;28;20043;-75
2021/04/23 09:34:49;;;;;;;13.05;4.68;;;;;;;18.44;35.94;103099.59;5060197;28;20032;-75
2021/04/23 09:37:15;;;;;;;9.52;3.75;;;;;;;19.23;34.12;103095.34;5052591;28;20033;-76
2021/04/23 09:39:41;;;;;;;10.68;4.47;;;;;;;18.92;33.98;103098.44;5059101;28;20094;-76
2021/04/23 09:42:10;;;;;;;14.18;4.18;;;;;;;19.08;33.86;103099.63;5057831;28;20033;-75
2021/04/23 09:44:40;;;;;;;11.43;4.13;;;;;;;19.28;33.97;103086.75;5057799;28;20604;-76
2021/04/23 09:47:10;;;;;;;10.93;4.20;;;;;;;19.81;33.59;103100.38;5078289;28;20483;-76
2021/04/23 09:49:36;;;;;;;13.32;4.00;;;;;;;20.51;31.95;103088.47;5060495;28;20035;-76
2021/04/23 09:52:04;;;;;;;11.82;4.38;;;;;;;20.47;31.01;103089.84;5059602;28;20032;-76
2021/04/23 09:54:30;;;;;;;9.30;4.03;;;;;;;19.32;33.06;103071.06;5055215;28;20539;-76
2021/04/23 09:56:57;;;;;;;12.73;4.30;;;;;;;19.82;32.38;103064.97;5057485;28;20398;-75
2021/04/23 09:59:25;;;;;;;9.90;3.88;;;;;;;20.13;31.67;103097.00;5056751;28;20087;-76
2021/04/23 10:02:04;;;;;;;9.82;4.03;;;;;;;20.40;30.80;103096.94;5060820;28;20123;-76
2021/04/23 10:04:35;;;;;;;10.82;3.90;;;;;;;20.84;30.31;103095.88;5057478;28;20028;-75
2021/04/23 10:07:22;;;;;;;11.68;3.78;;;;;;;21.17;29.95;103101.34;5057755;28;20078;-75
2021/04/23 10:10:03;;;;;;;14.02;4.60;;;;;;;20.68;29.94;103099.38;5059633;28;20036;-75
2021/04/23 10:12:34;;;;;;;8.65;4.03;;;;;;;20.38;30.96;103102.53;5056981;28;20055;-75
2021/04/23 10:15:04;;;;;;;11.38;4.05;;;;;;;19.41;32.24;103057.41;5086985;28;20226;-75
2021/04/23 10:17:29;;;;;;;9.70;3.78;;;;;;;19.64;32.92;103091.25;5059905;28;20170;-75
2021/04/23 10:19:57;;;;;;;12.43;3.92;;;;;;;19.66;32.62;103090.09;5059379;28;20467;-76
2021/04/23 10:22:23;;;;;;;10.63;3.80;;;;;;;19.64;33.06;103085.84;5055749;28;20086;-75
2021/04/23 10:24:50;;;;;;;13.30;4.30;;;;;;;19.85;32.10;103085.47;5056199;28;20075;-75
2021/04/23 10:27:18;;;;;;;11.45;4.30;;;;;;;18.90;33.74;103091.47;5065495;28;20512;-75
2021/04/23 10:29:46;;;;;;;12.60;4.65;;;;;;;18.40;34.73;103095.47;5057381;28;20029;-75
2021/04/23 10:32:13;;;;;;;8.60;4.32;;;;;;;18.47;34.62;103088.47;5059612;28;20036;-75
2021/04/23 10:34:40;;;;;;;11.07;4.03;;;;;;;18.54;34.81;103070.63;5058525;28;20135;-75
2021/04/23 10:37:06;;;;;;;14.20;4.77;;;;;;;18.55;34.13;103083.16;5044624;28;20107;-75
2021/04/23 10:39:36;;;;;;;12.90;4.47;;;;;;;18.35;34.57;103093.22;5068119;28;21058;-75
2021/04/23 10:42:03;;;;;;;12.18;4.13;;;;;;;18.39;34.86;103091.94;5055531;28;20269;-76
2021/04/23 10:44:58;;;;;;;15.13;4.65;;;;;;;18.39;34.54;103083.00;5077596;28;20071;-76
2021/04/23 10:47:31;;;;;;;11.23;4.45;;;;;;;17.59;36.27;103078.81;5057488;28;20033;-76
2021/04/23 10:50:10;;;;;;;13.73;4.07;;;;;;;17.70;36.93;103088.63;5056510;28;20077;-76
2021/04/23 10:52:56;;;;;;;13.75;4.55;;;;;;;17.89;36.84;103079.59;5087166;28;20190;-76
2021/04/23 10:55:40;;;;;;;11.02;4.55;;;;;;;18.02;35.09;103084.72;5063504;28;20446;-76
2021/04/23 10:58:07;;;;;;;12.00;4.30;;;;;;;17.76;35.82;103079.94;5060190;28;20029;-77
2021/04/23 11:00:43;;;;;;;12.15;4.47;;;;;;;17.42;37.24;103081.28;5062066;28;20025;-80
2021/04/23 11:03:20;;;;;;;14.00;4.05;;;;;;;17.20;37.18;103085.16;5060569;28;20535;-75
2021/04/23 11:05:47;;;;;;;10.27;4.32;;;;;;;16.96;37.67;103078.34;5059117;28;20546;-76
2021/04/23 11:08:13;;;;;;;12.05;3.72;;;;;;;16.62;38.63;103067.88;5060280;28;20024;-76
2021/04/23 11:11:13;;;;;;;14.25;4.82;;;;;;;16.92;37.72;103065.22;5044709;28;20101;-75
2021/04/23 11:13:47;;;;;;;11.05;4.22;;;;;;;16.94;37.31;103060.53;5064441;28;20035;-76
2021/04/23 11:16:24;;;;;;;10.13;3.97;;;;;;;16.96;37.81;103066.69;5062957;28;20028;-75
2021/04/23 11:18:53;;;;;;;9.98;3.88;;;;;;;17.01;37.51;103060.84;5055671;28;20399;-75
2021/04/23 11:21:31;;;;;;;11.52;4.60;;;;;;;17.51;36.47;103070.63;5061716;28;20115;-75